KTMA/TMA METAR and TAF weather

Enter ICAO airport designator
Station Type Date Time Source
KTMA METAR 2021/02/27 02:55 UTC NOAA

KTMA 270255Z AUTO 21003KT 10SM CLR 19/17 A3014 RMK AO2 T01860165


Station Type Date Time Source
KTMA Decoded METAR 2021/02/27 02:55 UTC NOAA

Station name not available
Feb 26, 2021 - 09:55 PM EST / 2021.02.27 0255 UTC
Wind: from the SSW (210 degrees) at 3 MPH (3 KT):0
Visibility: 10 mile(s):0
Sky conditions: clear
Temperature: 65.5 F (18.6 C)
Dew Point: 61.7 F (16.5 C)
Relative Humidity: 87%
Pressure (altimeter): 30.14 in. Hg (1020 hPa)
ob: KTMA 270255Z AUTO 21003KT 10SM CLR 19/17 A3014 RMK AO2 T01860165
cycle: 3

Station Type Date Time Source
KTMA TAF UTC NOAA

Error!

Example: see airport list